Flugmeteorologie

  • METAR LHSM 181015Z 17007KT CAVOK 32/13 Q1019 NOSIG=
  • METAR LHSM 180945Z 20006KT CAVOK 31/14 Q1019 NOSIG=
  • METAR LHSM 180915Z 21007KT CAVOK 30/15 Q1019 NOSIG=
  • METAR LHSM 180845Z 15006KT CAVOK 30/16 Q1019 NOSIG=
  • METAR LHSM 180745Z 19002KT CAVOK 27/15 Q1019 NOSIG=

  • TAF LHSM 180815Z 1809/1818 VRB03KT CAVOK TEMPO 1812/1817 18006KT=
  • TAF LHSM 180515Z 1806/1815 VRB03KT CAVOK=
  • TAF LHSM 171115Z 1712/1721 33008KT CAVOK
  • TAF LHSM 170815Z 1709/1718 33008KT CAVOK=
  • TAF LHSM 170515Z 1706/1715 33008KT CAVOK=